MSC Suez — HPMS — position and weather

sailwx.info

Track history (hours):
 
Tides and Currents Weather Stations Pressure Air Temp Water Temp Dewpoint Dewpoint Depression Visibility Wind Speed Wind Dir Waves Ship Positions

MSC Suez

Last reported at 2017-Dec-17 11:51 UTC. Time now 2017-Dec-17 21:46 UTC.
Position N 10°42' W 016°54'.

Length 237 m; draft 8.2 m.

Type: Ship. MMSI: 355289000.

Date/timePositionNaut miles runAvg speedWind from/ knotsBaromVisibWave heightAir tempDewpointWater temp
2017-Dec-17 11:51N 10°42' W 016°54'411.5
2017-Dec-17 11:31N 10°38' W 016°52'611.4
2017-Dec-17 11:01N 10°34' W 016°49'611.5
2017-Dec-17 10:30N 10°29' W 016°45'911.5
2017-Dec-17 09:45N 10°22' W 016°40'311.4
2017-Dec-17 09:31N 10°20' W 016°38'1312.4
2017-Dec-17 08:26N 10°09' W 016°30'1017.9
2017-Dec-17 07:54N 10°02' W 016°24'4816.5
2017-Dec-17 05:00N 09°23' W 015°56'1016.4
2017-Dec-17 04:25N 09°15' W 015°50'1316.3
2017-Dec-17 03:38N 09°05' W 015°42'516.5
2017-Dec-17 03:21N 09°02' W 015°39'516.5
2017-Dec-17 03:01N 08°58' W 015°35'816.4
2017-Dec-17 02:30N 08°53' W 015°29'816.3
2017-Dec-17 02:00N 08°47' W 015°23'816.3
2017-Dec-17 01:31N 08°41' W 015°17'816.3
2017-Dec-17 01:01N 08°36' W 015°11'816.1
2017-Dec-17 00:30N 08°30' W 015°05'916.2
2017-Dec-16 23:58N 08°24' W 014°59'816.3
2017-Dec-16 23:31N 08°19' W 014°53'916.4
2017-Dec-16 22:56N 08°13' W 014°46'716.4
2017-Dec-16 22:30N 08°08' W 014°41'916.3
2017-Dec-16 21:57N 08°02' W 014°34'  
Track history (hours):
 
Tides and Currents Weather Stations Pressure Air Temp Water Temp Dewpoint Dewpoint Depression Visibility Wind Speed Wind Dir Waves Ship Positions

MSC Suez

Last reported at 2017-Dec-17 11:51 UTC. Time now 2017-Dec-17 21:46 UTC.
Position N 10°42' W 016°54'.

Length 237 m; draft 8.2 m.

Type: Ship. MMSI: 355289000.

Date/timePositionNaut miles runAvg speedWind from/ knotsBaromVisibWave heightAir tempDewpointWater temp
2017-Dec-17 11:51N 10°42' W 016°54'411.5
2017-Dec-17 11:31N 10°38' W 016°52'611.4
2017-Dec-17 11:01N 10°34' W 016°49'611.5
2017-Dec-17 10:30N 10°29' W 016°45'911.5
2017-Dec-17 09:45N 10°22' W 016°40'311.4
2017-Dec-17 09:31N 10°20' W 016°38'1312.4
2017-Dec-17 08:26N 10°09' W 016°30'1017.9
2017-Dec-17 07:54N 10°02' W 016°24'4816.5
2017-Dec-17 05:00N 09°23' W 015°56'1016.4
2017-Dec-17 04:25N 09°15' W 015°50'1316.3
2017-Dec-17 03:38N 09°05' W 015°42'516.5
2017-Dec-17 03:21N 09°02' W 015°39'516.5
2017-Dec-17 03:01N 08°58' W 015°35'816.4
2017-Dec-17 02:30N 08°53' W 015°29'816.3
2017-Dec-17 02:00N 08°47' W 015°23'816.3
2017-Dec-17 01:31N 08°41' W 015°17'816.3
2017-Dec-17 01:01N 08°36' W 015°11'816.1
2017-Dec-17 00:30N 08°30' W 015°05'916.2
2017-Dec-16 23:58N 08°24' W 014°59'816.3
2017-Dec-16 23:31N 08°19' W 014°53'916.4
2017-Dec-16 22:56N 08°13' W 014°46'716.4
2017-Dec-16 22:30N 08°08' W 014°41'916.3
2017-Dec-16 21:57N 08°02' W 014°34'  

Dump ship's entire track history